Terminal Aerodrome Forecast
Issued by NWS

Home | Current Version | Previous Version | Text Only | Print | Product List | Glossary On
Versions: 1 2 3 4 5 6 7 8 9 10 11 12 13 14
000
FTUS41 KBTV 210523
TAFMSS
TAF
KMSS 210523Z 2106/2206 26007KT P6SM OVC025
     FM210900 VRB03KT P6SM OVC025
     FM211300 00000KT P6SM OVC035
     FM212100 VRB03KT P6SM OVC030
     FM220200 00000KT P6SM OVC015=

USA.gov is the U.S. government's official web portal to all federal, state and local government web resources and services.